Export, Pennsylvania
Current Conditions -  °F | °C
As of 7:45 PM on Monday 20 Oct 2014 (Local Time) from KLBE Reporting Station
Broken Clouds Broken Clouds  
Wind Chill: 54°   Ceiling: 10000
Heat Index: 54°   Visibility: 10mi
Dew Point: 43°   Wind: 5mph
Humidity: 67%   Direction: 190°S
Pressure: 29.91"   Gusts: NA
Location:  40.42°N, 79.63°W
Report Text: KLBE 202345Z 19004KT 10SM FEW065 SCT070 BKN100 12/06 A2991
Loading
Personal Weather Stations






























Interactive Weather Map
Tropical Storm Tracking
New forecast layout! Learn more

10-Day Weather Forecast

Advertisements
Track Severe Weather on mobile